sensor_id;sensor_type;location;lat;lon;timestamp;temperature;humidity
19999;DHT22;10160;50.926;4.374;2023-04-25T00:01:48;10.60;99.90
19999;DHT22;10160;50.926;4.374;2023-04-25T00:04:13;10.80;99.90
19999;DHT22;10160;50.926;4.374;2023-04-25T00:06:39;11.00;99.90
19999;DHT22;10160;50.926;4.374;2023-04-25T00:09:06;10.80;99.90
19999;DHT22;10160;50.926;4.374;2023-04-25T00:11:36;10.70;99.90
19999;DHT22;10160;50.926;4.374;2023-04-25T00:14:02;10.40;99.90
19999;DHT22;10160;50.926;4.374;2023-04-25T00:16:29;10.50;99.90
19999;DHT22;10160;50.926;4.374;2023-04-25T00:18:56;10.70;99.90
19999;DHT22;10160;50.926;4.374;2023-04-25T00:21:22;10.70;99.90
19999;DHT22;10160;50.926;4.374;2023-04-25T00:23:49;10.70;99.90
19999;DHT22;10160;50.926;4.374;2023-04-25T00:26:15;10.80;99.90
19999;DHT22;10160;50.926;4.374;2023-04-25T00:28:41;10.80;99.90
19999;DHT22;10160;50.926;4.374;2023-04-25T00:31:06;10.90;99.90
19999;DHT22;10160;50.926;4.374;2023-04-25T00:33:32;10.90;99.90
19999;DHT22;10160;50.926;4.374;2023-04-25T00:35:58;10.80;99.90
19999;DHT22;10160;50.926;4.374;2023-04-25T00:38:23;10.80;99.90
19999;DHT22;10160;50.926;4.374;2023-04-25T00:40:49;10.50;99.90
19999;DHT22;10160;50.926;4.374;2023-04-25T00:43:15;10.50;99.90
19999;DHT22;10160;50.926;4.374;2023-04-25T00:45:43;10.30;99.90
19999;DHT22;10160;50.926;4.374;2023-04-25T00:48:08;10.50;99.90
19999;DHT22;10160;50.926;4.374;2023-04-25T00:50:35;10.60;99.90
19999;DHT22;10160;50.926;4.374;2023-04-25T00:53:02;10.70;99.90
19999;DHT22;10160;50.926;4.374;2023-04-25T00:55:29;10.80;99.90
19999;DHT22;10160;50.926;4.374;2023-04-25T00:57:57;10.90;99.90
19999;DHT22;10160;50.926;4.374;2023-04-25T01:00:22;10.90;99.90
19999;DHT22;10160;50.926;4.374;2023-04-25T01:02:48;10.80;99.90
19999;DHT22;10160;50.926;4.374;2023-04-25T01:05:15;10.60;99.90
19999;DHT22;10160;50.926;4.374;2023-04-25T01:07:40;10.40;99.90
19999;DHT22;10160;50.926;4.374;2023-04-25T01:10:07;10.50;99.90
19999;DHT22;10160;50.926;4.374;2023-04-25T01:12:33;10.70;99.90
19999;DHT22;10160;50.926;4.374;2023-04-25T01:14:58;10.80;99.90
19999;DHT22;10160;50.926;4.374;2023-04-25T01:17:24;10.70;99.90
19999;DHT22;10160;50.926;4.374;2023-04-25T01:19:50;10.70;99.90
19999;DHT22;10160;50.926;4.374;2023-04-25T01:22:17;10.60;99.90
19999;DHT22;10160;50.926;4.374;2023-04-25T01:24:43;10.70;99.90
19999;DHT22;10160;50.926;4.374;2023-04-25T01:27:09;10.50;99.90
19999;DHT22;10160;50.926;4.374;2023-04-25T01:29:36;10.60;99.90
19999;DHT22;10160;50.926;4.374;2023-04-25T01:32:02;10.70;99.90
19999;DHT22;10160;50.926;4.374;2023-04-25T01:34:28;10.60;99.90
19999;DHT22;10160;50.926;4.374;2023-04-25T01:36:54;10.50;99.90
19999;DHT22;10160;50.926;4.374;2023-04-25T01:39:20;10.30;99.90
19999;DHT22;10160;50.926;4.374;2023-04-25T01:41:46;10.50;99.90
19999;DHT22;10160;50.926;4.374;2023-04-25T01:44:13;10.40;99.90
19999;DHT22;10160;50.926;4.374;2023-04-25T01:46:39;10.50;99.90
19999;DHT22;10160;50.926;4.374;2023-04-25T01:49:05;10.60;99.90
19999;DHT22;10160;50.926;4.374;2023-04-25T01:51:31;10.30;99.90
19999;DHT22;10160;50.926;4.374;2023-04-25T01:53:57;10.50;99.90
19999;DHT22;10160;50.926;4.374;2023-04-25T01:56:22;10.50;99.90
19999;DHT22;10160;50.926;4.374;2023-04-25T01:58:48;10.50;99.90
19999;DHT22;10160;50.926;4.374;2023-04-25T02:01:14;10.60;99.90
19999;DHT22;10160;50.926;4.374;2023-04-25T02:03:40;10.60;99.90
19999;DHT22;10160;50.926;4.374;2023-04-25T02:06:06;10.50;99.90
19999;DHT22;10160;50.926;4.374;2023-04-25T02:08:31;10.50;99.90
19999;DHT22;10160;50.926;4.374;2023-04-25T02:10:58;10.60;99.90
19999;DHT22;10160;50.926;4.374;2023-04-25T02:13:23;10.70;99.90
19999;DHT22;10160;50.926;4.374;2023-04-25T02:15:49;10.70;99.90
19999;DHT22;10160;50.926;4.374;2023-04-25T02:18:15;10.70;99.90
19999;DHT22;10160;50.926;4.374;2023-04-25T02:20:43;10.60;99.90
19999;DHT22;10160;50.926;4.374;2023-04-25T02:23:09;10.50;99.90
19999;DHT22;10160;50.926;4.374;2023-04-25T02:25:35;10.50;99.90
19999;DHT22;10160;50.926;4.374;2023-04-25T02:28:01;10.20;99.90
19999;DHT22;10160;50.926;4.374;2023-04-25T02:30:26;10.20;99.90
19999;DHT22;10160;50.926;4.374;2023-04-25T02:32:52;10.20;99.90
19999;DHT22;10160;50.926;4.374;2023-04-25T02:35:18;10.30;99.90
19999;DHT22;10160;50.926;4.374;2023-04-25T02:37:44;10.30;99.90
19999;DHT22;10160;50.926;4.374;2023-04-25T02:40:10;10.30;99.90
19999;DHT22;10160;50.926;4.374;2023-04-25T02:42:36;10.40;99.90
19999;DHT22;10160;50.926;4.374;2023-04-25T02:45:02;10.40;99.90
19999;DHT22;10160;50.926;4.374;2023-04-25T02:47:28;10.10;99.90
19999;DHT22;10160;50.926;4.374;2023-04-25T02:49:54;10.10;99.90
19999;DHT22;10160;50.926;4.374;2023-04-25T02:52:20;10.00;99.90
19999;DHT22;10160;50.926;4.374;2023-04-25T02:54:46;9.80;99.90
19999;DHT22;10160;50.926;4.374;2023-04-25T02:57:12;10.00;99.90
19999;DHT22;10160;50.926;4.374;2023-04-25T02:59:38;9.90;99.90
19999;DHT22;10160;50.926;4.374;2023-04-25T03:02:04;9.90;99.90
19999;DHT22;10160;50.926;4.374;2023-04-25T03:04:29;10.00;99.90
19999;DHT22;10160;50.926;4.374;2023-04-25T03:06:55;9.90;99.90
19999;DHT22;10160;50.926;4.374;2023-04-25T03:09:21;9.70;99.90
19999;DHT22;10160;50.926;4.374;2023-04-25T03:11:46;9.70;99.90
19999;DHT22;10160;50.926;4.374;2023-04-25T03:14:12;9.70;99.90
19999;DHT22;10160;50.926;4.374;2023-04-25T03:16:38;9.90;99.90
19999;DHT22;10160;50.926;4.374;2023-04-25T03:19:04;9.80;99.90
19999;DHT22;10160;50.926;4.374;2023-04-25T03:21:31;9.80;99.90
19999;DHT22;10160;50.926;4.374;2023-04-25T03:23:58;9.70;99.90
19999;DHT22;10160;50.926;4.374;2023-04-25T03:26:24;9.70;99.90
19999;DHT22;10160;50.926;4.374;2023-04-25T03:28:50;9.60;99.90
19999;DHT22;10160;50.926;4.374;2023-04-25T03:31:15;9.70;99.90
19999;DHT22;10160;50.926;4.374;2023-04-25T03:33:41;9.60;99.90
19999;DHT22;10160;50.926;4.374;2023-04-25T03:36:07;9.50;99.90
19999;DHT22;10160;50.926;4.374;2023-04-25T03:38:33;9.30;99.90
19999;DHT22;10160;50.926;4.374;2023-04-25T03:40:58;9.60;99.90
19999;DHT22;10160;50.926;4.374;2023-04-25T03:43:24;9.40;99.90
19999;DHT22;10160;50.926;4.374;2023-04-25T03:45:50;9.20;99.90
19999;DHT22;10160;50.926;4.374;2023-04-25T03:48:16;9.30;99.90
19999;DHT22;10160;50.926;4.374;2023-04-25T03:50:42;9.40;99.90
19999;DHT22;10160;50.926;4.374;2023-04-25T03:53:08;9.60;99.90
19999;DHT22;10160;50.926;4.374;2023-04-25T03:55:37;9.50;99.90
19999;DHT22;10160;50.926;4.374;2023-04-25T03:58:02;9.50;99.90
19999;DHT22;10160;50.926;4.374;2023-04-25T04:00:28;9.50;99.90
19999;DHT22;10160;50.926;4.374;2023-04-25T04:02:54;9.30;99.90
19999;DHT22;10160;50.926;4.374;2023-04-25T04:05:19;9.50;99.90
19999;DHT22;10160;50.926;4.374;2023-04-25T04:07:45;9.60;99.90
19999;DHT22;10160;50.926;4.374;2023-04-25T04:10:11;9.60;99.90
19999;DHT22;10160;50.926;4.374;2023-04-25T04:12:38;9.70;99.90
19999;DHT22;10160;50.926;4.374;2023-04-25T04:15:05;9.70;99.90
19999;DHT22;10160;50.926;4.374;2023-04-25T04:17:31;9.80;99.90
19999;DHT22;10160;50.926;4.374;2023-04-25T04:19:57;10.00;99.90
19999;DHT22;10160;50.926;4.374;2023-04-25T04:22:23;10.00;99.90
19999;DHT22;10160;50.926;4.374;2023-04-25T04:24:49;10.00;99.90
19999;DHT22;10160;50.926;4.374;2023-04-25T04:27:19;10.00;99.90
19999;DHT22;10160;50.926;4.374;2023-04-25T04:29:45;10.20;99.90
19999;DHT22;10160;50.926;4.374;2023-04-25T04:32:12;9.90;99.90
19999;DHT22;10160;50.926;4.374;2023-04-25T04:34:38;9.80;99.90
19999;DHT22;10160;50.926;4.374;2023-04-25T04:37:04;9.70;99.90
19999;DHT22;10160;50.926;4.374;2023-04-25T04:39:31;9.50;99.90
19999;DHT22;10160;50.926;4.374;2023-04-25T04:41:56;9.50;99.90
19999;DHT22;10160;50.926;4.374;2023-04-25T04:44:22;9.40;99.90
19999;DHT22;10160;50.926;4.374;2023-04-25T04:46:48;9.40;99.90
19999;DHT22;10160;50.926;4.374;2023-04-25T04:49:14;9.20;99.90
19999;DHT22;10160;50.926;4.374;2023-04-25T04:51:40;9.10;99.90
19999;DHT22;10160;50.926;4.374;2023-04-25T04:54:12;9.00;99.90
19999;DHT22;10160;50.926;4.374;2023-04-25T04:56:38;8.90;99.90
19999;DHT22;10160;50.926;4.374;2023-04-25T04:59:04;8.90;99.90
19999;DHT22;10160;50.926;4.374;2023-04-25T05:01:29;8.90;99.90
19999;DHT22;10160;50.926;4.374;2023-04-25T05:03:56;9.00;99.90
19999;DHT22;10160;50.926;4.374;2023-04-25T05:06:26;9.10;99.90
19999;DHT22;10160;50.926;4.374;2023-04-25T05:08:52;9.00;99.90
19999;DHT22;10160;50.926;4.374;2023-04-25T05:11:19;9.10;99.90
19999;DHT22;10160;50.926;4.374;2023-04-25T05:13:49;9.10;99.90
19999;DHT22;10160;50.926;4.374;2023-04-25T05:16:14;9.20;99.90
19999;DHT22;10160;50.926;4.374;2023-04-25T05:18:41;9.20;99.90
19999;DHT22;10160;50.926;4.374;2023-04-25T05:21:07;9.20;99.90
19999;DHT22;10160;50.926;4.374;2023-04-25T05:23:33;9.40;99.90
19999;DHT22;10160;50.926;4.374;2023-04-25T05:26:00;9.50;99.90
19999;DHT22;10160;50.926;4.374;2023-04-25T05:28:25;9.60;99.90
19999;DHT22;10160;50.926;4.374;2023-04-25T05:30:51;9.80;99.90
19999;DHT22;10160;50.926;4.374;2023-04-25T05:33:18;10.00;99.90
19999;DHT22;10160;50.926;4.374;2023-04-25T05:35:44;10.00;99.90
19999;DHT22;10160;50.926;4.374;2023-04-25T05:38:09;9.90;99.90
19999;DHT22;10160;50.926;4.374;2023-04-25T05:40:35;9.60;99.90
19999;DHT22;10160;50.926;4.374;2023-04-25T05:43:01;9.40;99.90
19999;DHT22;10160;50.926;4.374;2023-04-25T05:45:26;9.20;99.90
19999;DHT22;10160;50.926;4.374;2023-04-25T05:47:52;9.30;99.90
19999;DHT22;10160;50.926;4.374;2023-04-25T05:50:18;9.60;99.90
19999;DHT22;10160;50.926;4.374;2023-04-25T05:52:44;9.80;99.90
19999;DHT22;10160;50.926;4.374;2023-04-25T05:55:09;9.70;99.90
19999;DHT22;10160;50.926;4.374;2023-04-25T05:57:35;9.30;99.90
19999;DHT22;10160;50.926;4.374;2023-04-25T06:00:01;9.30;99.90
19999;DHT22;10160;50.926;4.374;2023-04-25T06:02:26;9.40;99.90
19999;DHT22;10160;50.926;4.374;2023-04-25T06:04:52;9.60;99.90
19999;DHT22;10160;50.926;4.374;2023-04-25T06:07:18;9.60;99.90
19999;DHT22;10160;50.926;4.374;2023-04-25T06:09:45;9.70;99.90
19999;DHT22;10160;50.926;4.374;2023-04-25T06:12:11;9.80;99.90
19999;DHT22;10160;50.926;4.374;2023-04-25T06:14:36;9.80;99.90
19999;DHT22;10160;50.926;4.374;2023-04-25T06:17:03;9.60;99.90
19999;DHT22;10160;50.926;4.374;2023-04-25T06:19:32;9.70;99.90
19999;DHT22;10160;50.926;4.374;2023-04-25T06:21:58;9.90;99.90
19999;DHT22;10160;50.926;4.374;2023-04-25T06:24:24;9.70;99.90
19999;DHT22;10160;50.926;4.374;2023-04-25T06:26:49;9.60;99.90
19999;DHT22;10160;50.926;4.374;2023-04-25T06:29:15;9.70;99.90
19999;DHT22;10160;50.926;4.374;2023-04-25T06:31:41;9.70;99.90
19999;DHT22;10160;50.926;4.374;2023-04-25T06:34:07;9.60;99.90
19999;DHT22;10160;50.926;4.374;2023-04-25T06:36:32;9.70;99.90
19999;DHT22;10160;50.926;4.374;2023-04-25T06:38:58;9.80;99.90
19999;DHT22;10160;50.926;4.374;2023-04-25T06:41:24;9.90;99.90
19999;DHT22;10160;50.926;4.374;2023-04-25T06:43:49;9.90;99.90
19999;DHT22;10160;50.926;4.374;2023-04-25T06:46:15;9.80;99.90
19999;DHT22;10160;50.926;4.374;2023-04-25T06:48:41;9.90;99.90
19999;DHT22;10160;50.926;4.374;2023-04-25T06:51:07;10.00;99.90
19999;DHT22;10160;50.926;4.374;2023-04-25T06:53:32;10.20;99.90
19999;DHT22;10160;50.926;4.374;2023-04-25T06:55:58;10.20;99.90
19999;DHT22;10160;50.926;4.374;2023-04-25T06:58:23;10.30;99.90
19999;DHT22;10160;50.926;4.374;2023-04-25T07:00:49;10.50;99.90
19999;DHT22;10160;50.926;4.374;2023-04-25T07:03:15;10.50;99.90
19999;DHT22;10160;50.926;4.374;2023-04-25T07:05:41;10.50;99.90
19999;DHT22;10160;50.926;4.374;2023-04-25T07:08:06;10.40;99.90
19999;DHT22;10160;50.926;4.374;2023-04-25T07:10:32;10.20;99.90
19999;DHT22;10160;50.926;4.374;2023-04-25T07:12:58;10.30;99.90
19999;DHT22;10160;50.926;4.374;2023-04-25T07:15:23;10.30;99.90
19999;DHT22;10160;50.926;4.374;2023-04-25T07:17:49;10.20;99.90
19999;DHT22;10160;50.926;4.374;2023-04-25T07:20:15;10.30;99.90
19999;DHT22;10160;50.926;4.374;2023-04-25T07:22:41;10.40;99.90
19999;DHT22;10160;50.926;4.374;2023-04-25T07:25:07;10.40;99.90
19999;DHT22;10160;50.926;4.374;2023-04-25T07:27:34;10.40;99.90
19999;DHT22;10160;50.926;4.374;2023-04-25T07:29:59;10.30;99.90
19999;DHT22;10160;50.926;4.374;2023-04-25T07:32:25;10.20;99.90
19999;DHT22;10160;50.926;4.374;2023-04-25T07:34:52;10.20;99.90
19999;DHT22;10160;50.926;4.374;2023-04-25T07:37:17;10.40;99.90
19999;DHT22;10160;50.926;4.374;2023-04-25T07:39:44;10.50;99.90
19999;DHT22;10160;50.926;4.374;2023-04-25T07:42:11;10.10;99.90
19999;DHT22;10160;50.926;4.374;2023-04-25T07:44:37;10.50;99.90
19999;DHT22;10160;50.926;4.374;2023-04-25T07:47:06;10.70;99.90
19999;DHT22;10160;50.926;4.374;2023-04-25T07:49:36;10.90;99.90
19999;DHT22;10160;50.926;4.374;2023-04-25T07:52:03;11.10;99.90
19999;DHT22;10160;50.926;4.374;2023-04-25T07:54:29;11.30;99.90
19999;DHT22;10160;50.926;4.374;2023-04-25T07:56:55;11.40;99.90
19999;DHT22;10160;50.926;4.374;2023-04-25T07:59:21;11.40;99.90
19999;DHT22;10160;50.926;4.374;2023-04-25T08:01:47;10.90;99.90
19999;DHT22;10160;50.926;4.374;2023-04-25T08:04:13;11.10;99.90
19999;DHT22;10160;50.926;4.374;2023-04-25T08:06:38;11.20;99.90
19999;DHT22;10160;50.926;4.374;2023-04-25T08:09:04;11.10;99.90
19999;DHT22;10160;50.926;4.374;2023-04-25T08:11:30;11.20;99.90
19999;DHT22;10160;50.926;4.374;2023-04-25T08:13:55;11.10;99.90
19999;DHT22;10160;50.926;4.374;2023-04-25T08:16:21;11.10;99.90
19999;DHT22;10160;50.926;4.374;2023-04-25T08:18:47;11.30;99.90
19999;DHT22;10160;50.926;4.374;2023-04-25T08:21:22;11.20;99.90
19999;DHT22;10160;50.926;4.374;2023-04-25T08:23:50;11.20;99.90
19999;DHT22;10160;50.926;4.374;2023-04-25T08:26:26;11.30;99.90
19999;DHT22;10160;50.926;4.374;2023-04-25T08:28:51;11.10;99.90
19999;DHT22;10160;50.926;4.374;2023-04-25T08:31:39;11.30;99.90
19999;DHT22;10160;50.926;4.374;2023-04-25T08:34:28;11.40;99.90
19999;DHT22;10160;50.926;4.374;2023-04-25T08:39:47;11.40;99.90
19999;DHT22;10160;50.926;4.374;2023-04-25T08:42:15;11.40;99.90
19999;DHT22;10160;50.926;4.374;2023-04-25T08:44:44;11.50;99.90
19999;DHT22;10160;50.926;4.374;2023-04-25T08:47:19;11.90;99.90
19999;DHT22;10160;50.926;4.374;2023-04-25T08:49:50;12.30;99.90
19999;DHT22;10160;50.926;4.374;2023-04-25T08:52:48;12.20;99.90
19999;DHT22;10160;50.926;4.374;2023-04-25T08:55:16;12.50;99.90
19999;DHT22;10160;50.926;4.374;2023-04-25T08:57:42;12.60;99.90
19999;DHT22;10160;50.926;4.374;2023-04-25T09:00:18;12.70;99.90
19999;DHT22;10160;50.926;4.374;2023-04-25T09:02:44;12.90;99.90
19999;DHT22;10160;50.926;4.374;2023-04-25T09:05:13;12.60;99.90
19999;DHT22;10160;50.926;4.374;2023-04-25T09:07:39;12.50;99.90
19999;DHT22;10160;50.926;4.374;2023-04-25T09:10:05;12.40;99.90
19999;DHT22;10160;50.926;4.374;2023-04-25T09:12:39;11.80;99.90
19999;DHT22;10160;50.926;4.374;2023-04-25T09:15:10;11.60;99.90
19999;DHT22;10160;50.926;4.374;2023-04-25T09:17:44;11.50;99.90
19999;DHT22;10160;50.926;4.374;2023-04-25T09:20:12;11.90;99.90
19999;DHT22;10160;50.926;4.374;2023-04-25T09:22:39;12.00;99.90
19999;DHT22;10160;50.926;4.374;2023-04-25T09:25:09;11.90;99.90
19999;DHT22;10160;50.926;4.374;2023-04-25T09:30:36;12.20;99.90
19999;DHT22;10160;50.926;4.374;2023-04-25T09:36:03;11.90;99.90
19999;DHT22;10160;50.926;4.374;2023-04-25T09:38:43;11.70;99.90
19999;DHT22;10160;50.926;4.374;2023-04-25T09:41:15;12.10;99.90
19999;DHT22;10160;50.926;4.374;2023-04-25T09:43:49;12.50;99.90
19999;DHT22;10160;50.926;4.374;2023-04-25T09:46:15;13.00;99.90
19999;DHT22;10160;50.926;4.374;2023-04-25T09:48:48;13.40;99.90
19999;DHT22;10160;50.926;4.374;2023-04-25T09:51:15;13.50;99.90
19999;DHT22;10160;50.926;4.374;2023-04-25T09:53:47;13.90;99.90
19999;DHT22;10160;50.926;4.374;2023-04-25T09:56:20;13.80;99.90
19999;DHT22;10160;50.926;4.374;2023-04-25T09:58:49;13.20;99.90
19999;DHT22;10160;50.926;4.374;2023-04-25T10:01:17;13.40;99.90
19999;DHT22;10160;50.926;4.374;2023-04-25T10:04:01;13.50;99.90
19999;DHT22;10160;50.926;4.374;2023-04-25T10:09:59;13.50;99.90
19999;DHT22;10160;50.926;4.374;2023-04-25T10:12:26;13.90;99.90
19999;DHT22;10160;50.926;4.374;2023-04-25T10:14:58;14.30;99.90
19999;DHT22;10160;50.926;4.374;2023-04-25T10:17:43;14.50;99.90
19999;DHT22;10160;50.926;4.374;2023-04-25T10:23:17;14.60;99.90
19999;DHT22;10160;50.926;4.374;2023-04-25T10:31:47;15.00;99.90
19999;DHT22;10160;50.926;4.374;2023-04-25T10:43:33;14.50;99.90
19999;DHT22;10160;50.926;4.374;2023-04-25T10:49:01;14.30;99.90
19999;DHT22;10160;50.926;4.374;2023-04-25T10:51:46;13.90;99.90
19999;DHT22;10160;50.926;4.374;2023-04-25T10:57:45;13.40;99.90
19999;DHT22;10160;50.926;4.374;2023-04-25T11:00:34;13.10;99.90
19999;DHT22;10160;50.926;4.374;2023-04-25T11:03:24;13.10;99.90
19999;DHT22;10160;50.926;4.374;2023-04-25T11:05:50;13.10;99.90
19999;DHT22;10160;50.926;4.374;2023-04-25T11:08:48;13.00;99.90
19999;DHT22;10160;50.926;4.374;2023-04-25T11:11:18;12.70;99.90
19999;DHT22;10160;50.926;4.374;2023-04-25T11:16:47;13.00;99.90
19999;DHT22;10160;50.926;4.374;2023-04-25T11:19:13;13.30;99.90
19999;DHT22;10160;50.926;4.374;2023-04-25T11:21:58;13.60;99.90
19999;DHT22;10160;50.926;4.374;2023-04-25T11:27:31;13.50;99.90
19999;DHT22;10160;50.926;4.374;2023-04-25T11:33:00;13.10;99.90
19999;DHT22;10160;50.926;4.374;2023-04-25T11:41:13;13.40;99.90
19999;DHT22;10160;50.926;4.374;2023-04-25T11:44:17;13.70;99.90
19999;DHT22;10160;50.926;4.374;2023-04-25T11:49:30;13.40;99.90
19999;DHT22;10160;50.926;4.374;2023-04-25T11:52:15;12.70;99.90
19999;DHT22;10160;50.926;4.374;2023-04-25T12:03:25;13.90;99.90
19999;DHT22;10160;50.926;4.374;2023-04-25T12:12:27;14.30;99.90
19999;DHT22;10160;50.926;4.374;2023-04-25T12:17:54;14.20;99.90
19999;DHT22;10160;50.926;4.374;2023-04-25T12:20:23;14.50;99.90
19999;DHT22;10160;50.926;4.374;2023-04-25T12:23:27;14.50;99.90
19999;DHT22;10160;50.926;4.374;2023-04-25T12:25:56;15.00;99.90
19999;DHT22;10160;50.926;4.374;2023-04-25T12:31:54;15.20;99.90
19999;DHT22;10160;50.926;4.374;2023-04-25T12:34:41;14.90;99.90
19999;DHT22;10160;50.926;4.374;2023-04-25T12:37:44;14.70;99.90
19999;DHT22;10160;50.926;4.374;2023-04-25T12:40:10;14.70;99.90
19999;DHT22;10160;50.926;4.374;2023-04-25T12:48:53;14.10;99.90
19999;DHT22;10160;50.926;4.374;2023-04-25T12:51:55;13.70;99.90
19999;DHT22;10160;50.926;4.374;2023-04-25T12:54:58;13.80;99.90
19999;DHT22;10160;50.926;4.374;2023-04-25T12:57:43;13.90;99.90
19999;DHT22;10160;50.926;4.374;2023-04-25T13:00:09;13.70;99.90
19999;DHT22;10160;50.926;4.374;2023-04-25T13:02:35;14.30;99.90
19999;DHT22;10160;50.926;4.374;2023-04-25T13:08:07;15.10;99.90
19999;DHT22;10160;50.926;4.374;2023-04-25T13:10:55;15.50;99.90
19999;DHT22;10160;50.926;4.374;2023-04-25T13:13:39;16.00;99.90
19999;DHT22;10160;50.926;4.374;2023-04-25T13:16:24;16.60;99.90
19999;DHT22;10160;50.926;4.374;2023-04-25T13:19:08;17.20;99.90
19999;DHT22;10160;50.926;4.374;2023-04-25T13:22:12;17.50;99.90
19999;DHT22;10160;50.926;4.374;2023-04-25T13:24:46;17.70;99.90
19999;DHT22;10160;50.926;4.374;2023-04-25T13:33:28;16.40;99.90
19999;DHT22;10160;50.926;4.374;2023-04-25T13:35:56;16.40;99.90
19999;DHT22;10160;50.926;4.374;2023-04-25T13:38:24;15.70;99.90
19999;DHT22;10160;50.926;4.374;2023-04-25T13:41:08;15.30;99.90
19999;DHT22;10160;50.926;4.374;2023-04-25T13:43:53;15.10;99.90
19999;DHT22;10160;50.926;4.374;2023-04-25T13:46:37;15.30;99.90
19999;DHT22;10160;50.926;4.374;2023-04-25T13:49:06;14.40;99.90
19999;DHT22;10160;50.926;4.374;2023-04-25T13:54:43;14.80;99.90
19999;DHT22;10160;50.926;4.374;2023-04-25T13:59:56;15.10;99.90
19999;DHT22;10160;50.926;4.374;2023-04-25T14:02:21;15.40;99.90
19999;DHT22;10160;50.926;4.374;2023-04-25T14:05:31;15.40;99.90
19999;DHT22;10160;50.926;4.374;2023-04-25T14:11:15;15.90;99.90
19999;DHT22;10160;50.926;4.374;2023-04-25T14:14:21;16.20;99.90
19999;DHT22;10160;50.926;4.374;2023-04-25T14:20:12;16.10;99.90
19999;DHT22;10160;50.926;4.374;2023-04-25T14:22:37;15.70;99.90
19999;DHT22;10160;50.926;4.374;2023-04-25T14:25:07;15.70;99.90
19999;DHT22;10160;50.926;4.374;2023-04-25T14:27:51;15.60;99.90
19999;DHT22;10160;50.926;4.374;2023-04-25T14:30:20;15.10;99.90
19999;DHT22;10160;50.926;4.374;2023-04-25T14:32:46;15.20;99.90
19999;DHT22;10160;50.926;4.374;2023-04-25T14:35:12;15.30;99.90
19999;DHT22;10160;50.926;4.374;2023-04-25T14:37:56;15.40;99.90
19999;DHT22;10160;50.926;4.374;2023-04-25T14:40:23;15.50;99.90
19999;DHT22;10160;50.926;4.374;2023-04-25T14:42:51;15.90;99.90
19999;DHT22;10160;50.926;4.374;2023-04-25T14:45:36;15.70;99.90
19999;DHT22;10160;50.926;4.374;2023-04-25T14:48:39;15.90;99.90
19999;DHT22;10160;50.926;4.374;2023-04-25T14:54:08;15.50;99.90
19999;DHT22;10160;50.926;4.374;2023-04-25T14:56:33;15.60;99.90
19999;DHT22;10160;50.926;4.374;2023-04-25T14:59:05;15.60;99.90
19999;DHT22;10160;50.926;4.374;2023-04-25T15:04:35;15.30;99.90
19999;DHT22;10160;50.926;4.374;2023-04-25T15:07:00;15.40;99.90
19999;DHT22;10160;50.926;4.374;2023-04-25T15:12:29;15.20;99.90
19999;DHT22;10160;50.926;4.374;2023-04-25T15:17:41;15.70;99.90
19999;DHT22;10160;50.926;4.374;2023-04-25T15:20:26;16.10;99.90
19999;DHT22;10160;50.926;4.374;2023-04-25T15:25:56;15.50;99.90
19999;DHT22;10160;50.926;4.374;2023-04-25T15:28:40;15.00;99.90
19999;DHT22;10160;50.926;4.374;2023-04-25T15:34:30;15.10;99.90
19999;DHT22;10160;50.926;4.374;2023-04-25T15:37:15;14.90;99.90
19999;DHT22;10160;50.926;4.374;2023-04-25T15:39:40;14.50;99.90
19999;DHT22;10160;50.926;4.374;2023-04-25T15:45:27;14.80;99.90
19999;DHT22;10160;50.926;4.374;2023-04-25T15:48:12;14.70;99.90
19999;DHT22;10160;50.926;4.374;2023-04-25T15:50:38;14.60;99.90
19999;DHT22;10160;50.926;4.374;2023-04-25T15:53:04;14.80;99.90
19999;DHT22;10160;50.926;4.374;2023-04-25T15:58:32;14.40;99.90
19999;DHT22;10160;50.926;4.374;2023-04-25T16:01:17;14.50;99.90
19999;DHT22;10160;50.926;4.374;2023-04-25T16:06:46;14.30;99.90
19999;DHT22;10160;50.926;4.374;2023-04-25T16:11:56;13.80;99.90
19999;DHT22;10160;50.926;4.374;2023-04-25T16:14:40;13.90;99.90
19999;DHT22;10160;50.926;4.374;2023-04-25T16:17:25;14.00;99.90
19999;DHT22;10160;50.926;4.374;2023-04-25T16:19:53;13.80;99.90
19999;DHT22;10160;50.926;4.374;2023-04-25T16:25:42;13.40;99.90
19999;DHT22;10160;50.926;4.374;2023-04-25T16:31:30;13.20;99.90
19999;DHT22;10160;50.926;4.374;2023-04-25T16:33:56;13.10;99.90
19999;DHT22;10160;50.926;4.374;2023-04-25T16:36:40;13.30;99.90
19999;DHT22;10160;50.926;4.374;2023-04-25T16:39:24;13.40;99.90
19999;DHT22;10160;50.926;4.374;2023-04-25T16:41:50;13.50;99.90
19999;DHT22;10160;50.926;4.374;2023-04-25T16:44:16;13.30;99.90
19999;DHT22;10160;50.926;4.374;2023-04-25T16:52:50;12.70;99.90
19999;DHT22;10160;50.926;4.374;2023-04-25T17:01:03;12.90;99.90
19999;DHT22;10160;50.926;4.374;2023-04-25T17:06:32;12.60;99.90
19999;DHT22;10160;50.926;4.374;2023-04-25T17:08:58;12.80;99.90
19999;DHT22;10160;50.926;4.374;2023-04-25T17:11:42;12.90;99.90
19999;DHT22;10160;50.926;4.374;2023-04-25T17:14:26;12.90;99.90
19999;DHT22;10160;50.926;4.374;2023-04-25T17:19:36;12.70;99.90
19999;DHT22;10160;50.926;4.374;2023-04-25T17:22:02;12.70;99.90
19999;DHT22;10160;50.926;4.374;2023-04-25T17:30:15;12.60;99.90
19999;DHT22;10160;50.926;4.374;2023-04-25T17:32:41;12.40;99.90
19999;DHT22;10160;50.926;4.374;2023-04-25T17:35:08;12.20;99.90
19999;DHT22;10160;50.926;4.374;2023-04-25T17:40:19;11.90;99.90
19999;DHT22;10160;50.926;4.374;2023-04-25T17:42:45;11.60;99.90
19999;DHT22;10160;50.926;4.374;2023-04-25T17:48:17;11.80;99.90
19999;DHT22;10160;50.926;4.374;2023-04-25T17:50:43;11.80;99.90
19999;DHT22;10160;50.926;4.374;2023-04-25T17:53:28;11.80;99.90
19999;DHT22;10160;50.926;4.374;2023-04-25T17:55:53;11.80;99.90
19999;DHT22;10160;50.926;4.374;2023-04-25T17:58:20;11.70;99.90
19999;DHT22;10160;50.926;4.374;2023-04-25T18:01:04;11.50;99.90
19999;DHT22;10160;50.926;4.374;2023-04-25T18:03:49;11.70;99.90
19999;DHT22;10160;50.926;4.374;2023-04-25T18:09:20;11.70;99.90
19999;DHT22;10160;50.926;4.374;2023-04-25T18:11:50;11.70;99.90
19999;DHT22;10160;50.926;4.374;2023-04-25T18:14:18;11.60;99.90
19999;DHT22;10160;50.926;4.374;2023-04-25T18:16:46;11.80;99.90
19999;DHT22;10160;50.926;4.374;2023-04-25T18:19:12;11.60;99.90
19999;DHT22;10160;50.926;4.374;2023-04-25T18:21:43;11.70;99.90
19999;DHT22;10160;50.926;4.374;2023-04-25T18:24:28;11.70;99.90
19999;DHT22;10160;50.926;4.374;2023-04-25T18:26:53;11.60;99.90
19999;DHT22;10160;50.926;4.374;2023-04-25T18:35:11;11.30;99.90
19999;DHT22;10160;50.926;4.374;2023-04-25T18:37:55;10.80;99.90
19999;DHT22;10160;50.926;4.374;2023-04-25T18:40:58;10.60;99.90
19999;DHT22;10160;50.926;4.374;2023-04-25T18:43:24;10.70;99.90
19999;DHT22;10160;50.926;4.374;2023-04-25T18:49:12;10.70;99.90
19999;DHT22;10160;50.926;4.374;2023-04-25T18:54:41;10.40;99.90
19999;DHT22;10160;50.926;4.374;2023-04-25T18:59:51;10.20;99.90